| Data | Temp. Ø | Temp. Max | Temp. Min | Umidità | Pressione | Pioggia | Vento Ø | Vento dir. Ø | Vento Max | Rad. solare Ø | Rad. solare Max |
| 30.08.2026 00:00 | 20.9°C | 21.0°C | 20.8°C | 68.0% | 1013.7hPa | 0.0mm | 4.7km/h | S | 7.9km/h | 0.0W/m² | 0W/m² |
| 30.08.2026 00:05 | 20.8°C | 20.9°C | 20.8°C | 68.0% | 1013.7hPa | 0.0mm | 4.7km/h | SSW | 7.9km/h | 0.0W/m² | 0W/m² |
| 30.08.2026 00:10 | 20.7°C | 20.8°C | 20.7°C | 68.5% | 1013.7hPa | 0.0mm | 3.9km/h | S | 9.7km/h | 0.0W/m² | 0W/m² |
| 30.08.2026 00:15 | 20.6°C | 20.7°C | 20.6°C | 69.0% | 1013.9hPa | 0.0mm | 4.2km/h | SSW | 11.2km/h | 0.0W/m² | 0W/m² |
| 30.08.2026 00:20 | 20.6°C | 20.6°C | 20.5°C | 69.0% | 1013.8hPa | 0.0mm | 5.2km/h | SSW | 13.0km/h | 0.0W/m² | 0W/m² |
| 30.08.2026 00:25 | 20.6°C | 20.6°C | 20.5°C | 69.0% | 1013.9hPa | 0.0mm | 6.5km/h | SSW | 9.7km/h | 0.0W/m² | 0W/m² |
| 30.08.2026 00:30 | 20.6°C | 20.6°C | 20.5°C | 69.0% | 1013.9hPa | 0.0mm | 6.5km/h | S | 14.4km/h | 0.0W/m² | 0W/m² |
| 30.08.2026 00:35 | 20.5°C | 20.5°C | 20.4°C | 69.0% | 1013.9hPa | 0.0mm | 5.3km/h | S | 9.7km/h | 0.0W/m² | 0W/m² |
| 30.08.2026 00:40 | 20.4°C | 20.4°C | 20.3°C | 69.7% | 1013.9hPa | 0.0mm | 4.7km/h | S | 9.7km/h | 0.0W/m² | 0W/m² |
| 30.08.2026 00:45 | 20.3°C | 20.3°C | 20.3°C | 70.4% | 1013.9hPa | 0.0mm | 4.7km/h | S | 11.2km/h | 0.0W/m² | 0W/m² |
| 30.08.2026 00:50 | 20.3°C | 20.3°C | 20.3°C | 71.0% | 1014.0hPa | 0.0mm | 4.7km/h | SSW | 9.7km/h | 0.0W/m² | 0W/m² |
| 30.08.2026 00:55 | 20.3°C | 20.3°C | 20.3°C | 71.0% | 1014.1hPa | 0.0mm | 5.6km/h | SSW | 13.0km/h | 0.0W/m² | 0W/m² |
| 30.08.2026 01:00 | 20.3°C | 20.3°C | 20.2°C | 70.1% | 1014.1hPa | 0.0mm | 6.5km/h | S | 11.2km/h | 0.0W/m² | 0W/m² |
| 30.08.2026 01:05 | 20.2°C | 20.2°C | 20.1°C | 70.7% | 1014.2hPa | 0.0mm | 6.5km/h | S | 9.7km/h | 0.0W/m² | 0W/m² |
| 30.08.2026 01:10 | 20.1°C | 20.1°C | 20.1°C | 71.0% | 1014.3hPa | 0.0mm | 4.9km/h | S | 7.9km/h | 0.0W/m² | 0W/m² |
| 30.08.2026 01:15 | 20.1°C | 20.1°C | 20.0°C | 71.2% | 1014.3hPa | 0.0mm | 4.7km/h | SSW | 7.9km/h | 0.0W/m² | 0W/m² |
| 30.08.2026 01:20 | 20.0°C | 20.1°C | 19.9°C | 72.0% | 1014.4hPa | 0.0mm | 4.0km/h | S | 7.9km/h | 0.0W/m² | 0W/m² |
| 30.08.2026 01:25 | 19.9°C | 19.9°C | 19.8°C | 72.0% | 1014.4hPa | 0.0mm | 3.2km/h | S | 7.9km/h | 0.0W/m² | 0W/m² |
| 30.08.2026 01:30 | 20.0°C | 20.1°C | 19.9°C | 72.0% | 1014.4hPa | 0.0mm | 3.9km/h | SSW | 11.2km/h | 0.0W/m² | 0W/m² |
| 30.08.2026 01:35 | 20.1°C | 20.2°C | 20.1°C | 71.2% | 1014.4hPa | 0.0mm | 5.5km/h | SSW | 11.2km/h | 0.0W/m² | 0W/m² |
| 30.08.2026 01:40 | 20.1°C | 20.2°C | 20.1°C | 71.7% | 1014.5hPa | 0.0mm | 6.4km/h | S | 13.0km/h | 0.0W/m² | 0W/m² |
| 30.08.2026 01:45 | 20.1°C | 20.2°C | 20.1°C | 72.0% | 1014.5hPa | 0.0mm | 4.7km/h | S | 6.5km/h | 0.0W/m² | 0W/m² |
| 30.08.2026 01:50 | 20.1°C | 20.1°C | 20.1°C | 72.8% | 1014.5hPa | 0.0mm | 3.4km/h | S | 7.9km/h | 0.0W/m² | 0W/m² |
| 30.08.2026 01:55 | 20.1°C | 20.1°C | 20.0°C | 73.0% | 1014.6hPa | 0.0mm | 4.5km/h | SSW | 7.9km/h | 0.0W/m² | 0W/m² |
| 30.08.2026 02:00 | 19.9°C | 20.0°C | 19.9°C | 73.0% | 1014.6hPa | 0.0mm | 4.3km/h | SE | 6.5km/h | 0.0W/m² | 0W/m² |
| 30.08.2026 02:05 | 19.8°C | 19.9°C | 19.7°C | 73.1% | 1014.6hPa | 0.0mm | 3.2km/h | SE | 7.9km/h | 0.0W/m² | 0W/m² |
| 30.08.2026 02:10 | 19.6°C | 19.7°C | 19.6°C | 74.0% | 1014.6hPa | 0.0mm | 3.2km/h | SSW | 9.7km/h | 0.0W/m² | 0W/m² |
| 30.08.2026 02:15 | 19.6°C | 19.6°C | 19.6°C | 74.0% | 1014.6hPa | 0.0mm | 4.5km/h | SSW | 9.7km/h | 0.0W/m² | 0W/m² |
| 30.08.2026 02:20 | 19.7°C | 19.7°C | 19.6°C | 74.0% | 1014.6hPa | 0.0mm | 6.3km/h | S | 9.7km/h | 0.0W/m² | 0W/m² |
| 30.08.2026 02:25 | 19.6°C | 19.7°C | 19.6°C | 74.0% | 1014.6hPa | 0.0mm | 4.9km/h | SSW | 9.7km/h | 0.0W/m² | 0W/m² |
| 30.08.2026 02:30 | 19.5°C | 19.6°C | 19.4°C | 74.0% | 1014.6hPa | 0.0mm | 4.7km/h | S | 11.2km/h | 0.0W/m² | 0W/m² |
| 30.08.2026 02:35 | 19.4°C | 19.5°C | 19.4°C | 74.0% | 1014.5hPa | 0.0mm | 4.7km/h | S | 9.7km/h | 0.0W/m² | 0W/m² |
| 30.08.2026 02:40 | 19.4°C | 19.4°C | 19.4°C | 74.0% | 1014.6hPa | 0.0mm | 4.7km/h | SSW | 11.2km/h | 0.0W/m² | 0W/m² |
| 30.08.2026 02:45 | 19.4°C | 19.4°C | 19.4°C | 74.1% | 1014.6hPa | 0.0mm | 4.1km/h | SSE | 4.7km/h | 0.0W/m² | 0W/m² |
| 30.08.2026 02:50 | 19.3°C | 19.4°C | 19.3°C | 74.4% | 1014.6hPa | 0.0mm | 2.8km/h | S | 7.9km/h | 0.0W/m² | 0W/m² |
| 30.08.2026 02:55 | 19.3°C | 19.3°C | 19.3°C | 75.0% | 1014.7hPa | 0.0mm | 1.4km/h | SSE | 7.9km/h | 0.0W/m² | 0W/m² |
| 30.08.2026 03:00 | 19.3°C | 19.3°C | 19.2°C | 75.0% | 1014.6hPa | 0.0mm | 3.0km/h | SSW | 11.2km/h | 0.0W/m² | 0W/m² |
| 30.08.2026 03:05 | 19.3°C | 19.3°C | 19.3°C | 75.0% | 1014.7hPa | 0.0mm | 3.2km/h | SSW | 6.5km/h | 0.0W/m² | 0W/m² |
| 30.08.2026 03:10 | 19.2°C | 19.3°C | 19.2°C | 75.0% | 1014.7hPa | 0.0mm | 3.2km/h | SE | 6.5km/h | 0.0W/m² | 0W/m² |
| 30.08.2026 03:15 | 19.2°C | 19.2°C | 19.2°C | 75.3% | 1014.6hPa | 0.0mm | 3.1km/h | S | 6.5km/h | 0.0W/m² | 0W/m² |
| 30.08.2026 03:20 | 19.2°C | 19.2°C | 19.2°C | 75.5% | 1014.7hPa | 0.0mm | 1.9km/h | ESE | 6.5km/h | 0.0W/m² | 0W/m² |
| 30.08.2026 03:25 | 19.2°C | 19.2°C | 19.1°C | 75.3% | 1014.7hPa | 0.0mm | 1.4km/h | SE | 3.2km/h | 0.0W/m² | 0W/m² |
| 30.08.2026 03:30 | 19.1°C | 19.1°C | 19.1°C | 76.0% | 1014.7hPa | 0.0mm | 1.4km/h | SE | 7.9km/h | 0.0W/m² | 0W/m² |
| 30.08.2026 03:35 | 19.1°C | 19.1°C | 19.1°C | 76.0% | 1014.6hPa | 0.0mm | 3.0km/h | S | 6.5km/h | 0.0W/m² | 0W/m² |
| 30.08.2026 03:40 | 19.1°C | 19.1°C | 19.1°C | 76.0% | 1014.7hPa | 0.0mm | 3.2km/h | SSW | 7.9km/h | 0.0W/m² | 0W/m² |
| 30.08.2026 03:45 | 19.1°C | 19.1°C | 19.1°C | 76.0% | 1014.6hPa | 0.0mm | 2.0km/h | SSE | 4.7km/h | 0.0W/m² | 0W/m² |
| 30.08.2026 03:50 | 18.9°C | 19.0°C | 18.9°C | 76.0% | 1014.6hPa | 0.0mm | 1.4km/h | SE | 6.5km/h | 0.0W/m² | 0W/m² |
| 30.08.2026 03:55 | 18.9°C | 18.9°C | 18.9°C | 76.0% | 1014.6hPa | 0.0mm | 1.4km/h | SE | 7.9km/h | 0.0W/m² | 0W/m² |
| 30.08.2026 04:00 | 18.9°C | 18.9°C | 18.8°C | 76.0% | 1014.6hPa | 0.0mm | 2.2km/h | SE | 6.5km/h | 0.0W/m² | 0W/m² |
| 30.08.2026 04:05 | 18.9°C | 18.9°C | 18.8°C | 75.5% | 1014.6hPa | 0.0mm | 3.2km/h | SSW | 7.9km/h | 0.0W/m² | 0W/m² |
| 30.08.2026 04:10 | 19.0°C | 19.1°C | 18.9°C | 75.0% | 1014.5hPa | 0.0mm | 3.2km/h | S | 6.5km/h | 0.0W/m² | 0W/m² |
| 30.08.2026 04:15 | 19.1°C | 19.1°C | 19.1°C | 74.7% | 1014.5hPa | 0.0mm | 3.2km/h | S | 7.9km/h | 0.0W/m² | 0W/m² |
| 30.08.2026 04:20 | 19.1°C | 19.1°C | 19.0°C | 74.9% | 1014.5hPa | 0.0mm | 3.1km/h | SSW | 3.2km/h | 0.0W/m² | 0W/m² |
| 30.08.2026 04:25 | 19.0°C | 19.1°C | 18.9°C | 75.0% | 1014.5hPa | 0.0mm | 1.4km/h | SE | 4.7km/h | 0.0W/m² | 0W/m² |
| 30.08.2026 04:30 | 18.9°C | 18.9°C | 18.8°C | 75.0% | 1014.5hPa | 0.0mm | 1.4km/h | S | 4.7km/h | 0.0W/m² | 0W/m² |
| 30.08.2026 04:35 | 18.8°C | 18.8°C | 18.8°C | 75.4% | 1014.5hPa | 0.0mm | 1.4km/h | S | 3.2km/h | 0.0W/m² | 0W/m² |
| 30.08.2026 04:40 | 18.7°C | 18.8°C | 18.7°C | 76.0% | 1014.5hPa | 0.0mm | 1.4km/h | SE | 4.7km/h | 0.0W/m² | 0W/m² |
| 30.08.2026 04:45 | 18.6°C | 18.6°C | 18.6°C | 76.0% | 1014.4hPa | 0.0mm | 1.4km/h | SE | 3.2km/h | 0.0W/m² | 0W/m² |
| 30.08.2026 04:50 | 18.6°C | 18.6°C | 18.5°C | 76.0% | 1014.4hPa | 0.0mm | 1.4km/h | SE | 7.9km/h | 0.0W/m² | 0W/m² |
| 30.08.2026 04:55 | 18.5°C | 18.6°C | 18.5°C | 76.0% | 1014.5hPa | 0.0mm | 1.4km/h | ESE | 6.5km/h | 0.0W/m² | 0W/m² |
| 30.08.2026 05:00 | 18.4°C | 18.5°C | 18.4°C | 76.0% | 1014.5hPa | 0.0mm | 1.4km/h | E | 3.2km/h | 0.0W/m² | 0W/m² |
| 30.08.2026 05:05 | 18.4°C | 18.4°C | 18.3°C | 76.9% | 1014.5hPa | 0.0mm | 1.4km/h | SE | 6.5km/h | 0.0W/m² | 0W/m² |
| 30.08.2026 05:10 | 18.3°C | 18.4°C | 18.3°C | 77.0% | 1014.5hPa | 0.0mm | 1.4km/h | SSE | 4.7km/h | 0.0W/m² | 0W/m² |
| 30.08.2026 05:15 | 18.3°C | 18.3°C | 18.2°C | 77.0% | 1014.5hPa | 0.0mm | 1.4km/h | SE | 4.7km/h | 0.0W/m² | 0W/m² |
| 30.08.2026 05:20 | 18.2°C | 18.3°C | 18.2°C | 77.0% | 1014.5hPa | 0.0mm | 1.4km/h | SE | 3.2km/h | 0.0W/m² | 0W/m² |
| 30.08.2026 05:25 | 18.2°C | 18.2°C | 18.2°C | 77.0% | 1014.5hPa | 0.0mm | 1.4km/h | SSE | 3.2km/h | 0.0W/m² | 0W/m² |
| 30.08.2026 05:30 | 18.1°C | 18.2°C | 18.1°C | 77.0% | 1014.6hPa | 0.0mm | 1.4km/h | S | 4.7km/h | 0.0W/m² | 0W/m² |
| 30.08.2026 05:35 | 18.1°C | 18.1°C | 18.1°C | 77.0% | 1014.5hPa | 0.0mm | 1.4km/h | S | 7.9km/h | 0.0W/m² | 0W/m² |
| 30.08.2026 05:40 | 18.1°C | 18.2°C | 18.1°C | 77.4% | 1014.6hPa | 0.0mm | 1.4km/h | S | 6.5km/h | 0.0W/m² | 0W/m² |
| 30.08.2026 05:45 | 18.2°C | 18.2°C | 18.2°C | 78.0% | 1014.6hPa | 0.0mm | 1.4km/h | SSW | 3.2km/h | 0.0W/m² | 0W/m² |
| 30.08.2026 05:50 | 18.2°C | 18.2°C | 18.2°C | 78.8% | 1014.6hPa | 0.0mm | 1.4km/h | WSW | 3.2km/h | 0.0W/m² | 0W/m² |
| 30.08.2026 05:55 | 18.1°C | 18.2°C | 18.1°C | 79.3% | 1014.6hPa | 0.0mm | 1.4km/h | SW | 3.2km/h | 0.0W/m² | 0W/m² |
| 30.08.2026 06:00 | 18.0°C | 18.1°C | 17.9°C | 80.0% | 1014.6hPa | 0.0mm | 0.4km/h | SW | 1.4km/h | 0.0W/m² | 0W/m² |
| 30.08.2026 06:05 | 17.9°C | 17.9°C | 17.8°C | 80.6% | 1014.6hPa | 0.0mm | 0.0km/h | SW | 3.2km/h | 0.0W/m² | 0W/m² |
| 30.08.2026 06:10 | 17.8°C | 17.8°C | 17.8°C | 81.0% | 1014.7hPa | 0.0mm | 0.0km/h | SW | 3.2km/h | 0.0W/m² | 0W/m² |
| 30.08.2026 06:15 | 17.7°C | 17.8°C | 17.7°C | 81.1% | 1014.8hPa | 0.0mm | 0.4km/h | WSW | 3.2km/h | 0.0W/m² | 0W/m² |
| 30.08.2026 06:20 | 17.6°C | 17.6°C | 17.5°C | 82.0% | 1014.8hPa | 0.0mm | 1.4km/h | W | 3.2km/h | 0.0W/m² | 0W/m² |
| 30.08.2026 06:25 | 17.4°C | 17.5°C | 17.4°C | 82.7% | 1014.8hPa | 0.0mm | 1.4km/h | W | 3.2km/h | 0.0W/m² | 0W/m² |
| 30.08.2026 06:30 | 17.3°C | 17.4°C | 17.3°C | 83.0% | 1014.8hPa | 0.0mm | 1.4km/h | SW | 3.2km/h | 0.0W/m² | 0W/m² |
| 30.08.2026 06:35 | 17.2°C | 17.3°C | 17.2°C | 83.6% | 1014.9hPa | 0.0mm | 1.4km/h | S | 3.2km/h | 4.2W/m² | 5W/m² |
| 30.08.2026 06:40 | 17.2°C | 17.2°C | 17.2°C | 84.0% | 1014.9hPa | 0.0mm | 1.4km/h | WSW | 3.2km/h | 7.0W/m² | 9W/m² |
| 30.08.2026 06:45 | 17.1°C | 17.2°C | 17.1°C | 84.0% | 1014.9hPa | 0.0mm | 1.4km/h | WSW | 3.2km/h | 9.4W/m² | 11W/m² |
| 30.08.2026 06:50 | 17.1°C | 17.1°C | 17.1°C | 84.0% | 1014.9hPa | 0.0mm | 0.4km/h | SSW | 1.4km/h | 11.5W/m² | 12W/m² |
| 30.08.2026 06:55 | 17.1°C | 17.1°C | 17.1°C | 84.0% | 1014.9hPa | 0.0mm | 0.0km/h | SW | 1.4km/h | 13.3W/m² | 14W/m² |
| 30.08.2026 07:00 | 17.1°C | 17.1°C | 17.1°C | 84.0% | 1015.0hPa | 0.0mm | 0.0km/h | SW | 1.4km/h | 16.3W/m² | 18W/m² |
| 30.08.2026 07:05 | 17.1°C | 17.2°C | 17.1°C | 84.0% | 1015.0hPa | 0.0mm | 0.5km/h | SW | 3.2km/h | 18.3W/m² | 19W/m² |
| 30.08.2026 07:10 | 17.2°C | 17.2°C | 17.1°C | 84.0% | 1015.0hPa | 0.0mm | 1.4km/h | SSW | 3.2km/h | 20.0W/m² | 21W/m² |
| 30.08.2026 07:15 | 17.1°C | 17.2°C | 17.1°C | 83.7% | 1015.0hPa | 0.0mm | 1.3km/h | SSW | 3.2km/h | 23.4W/m² | 25W/m² |
| 30.08.2026 07:20 | 17.1°C | 17.2°C | 17.1°C | 83.0% | 1015.1hPa | 0.0mm | 0.0km/h | SSW | 1.4km/h | 25.7W/m² | 26W/m² |
| 30.08.2026 07:25 | 17.2°C | 17.3°C | 17.2°C | 83.0% | 1015.1hPa | 0.0mm | 0.0km/h | SSW | 1.4km/h | 27.7W/m² | 28W/m² |
| 30.08.2026 07:30 | 17.4°C | 17.4°C | 17.3°C | 83.0% | 1015.2hPa | 0.0mm | 0.7km/h | SSW | 4.7km/h | 30.3W/m² | 32W/m² |
| 30.08.2026 07:35 | 17.5°C | 17.6°C | 17.4°C | 83.0% | 1015.2hPa | 0.0mm | 1.4km/h | SSW | 1.4km/h | 32.2W/m² | 33W/m² |
| 30.08.2026 07:40 | 17.6°C | 17.7°C | 17.6°C | 83.0% | 1015.3hPa | 0.0mm | 1.4km/h | SSW | 3.2km/h | 33.0W/m² | 33W/m² |
| 30.08.2026 07:45 | 17.8°C | 17.8°C | 17.7°C | 83.0% | 1015.3hPa | 0.0mm | 1.4km/h | WSW | 4.7km/h | 34.7W/m² | 35W/m² |
| 30.08.2026 07:50 | 17.9°C | 17.9°C | 17.8°C | 83.0% | 1015.3hPa | 0.0mm | 1.4km/h | WSW | 3.2km/h | 36.7W/m² | 37W/m² |
| 30.08.2026 07:55 | 18.1°C | 18.1°C | 18.0°C | 82.8% | 1015.4hPa | 0.0mm | 1.4km/h | W | 4.7km/h | 38.7W/m² | 39W/m² |
| 30.08.2026 08:00 | 18.1°C | 18.1°C | 18.1°C | 83.0% | 1015.4hPa | 0.0mm | 1.8km/h | W | 4.7km/h | 39.8W/m² | 40W/m² |
| 30.08.2026 08:05 | 18.1°C | 18.2°C | 18.1°C | 83.0% | 1015.4hPa | 0.0mm | 1.4km/h | W | 4.7km/h | 42.3W/m² | 44W/m² |
| 30.08.2026 08:10 | 18.3°C | 18.4°C | 18.2°C | 82.8% | 1015.4hPa | 0.0mm | 1.4km/h | W | 4.7km/h | 44.3W/m² | 46W/m² |
| 30.08.2026 08:15 | 18.4°C | 18.5°C | 18.4°C | 82.0% | 1015.4hPa | 0.0mm | 1.4km/h | WSW | 4.7km/h | 46.3W/m² | 47W/m² |
| 30.08.2026 08:20 | 18.6°C | 18.6°C | 18.5°C | 81.5% | 1015.4hPa | 0.0mm | 2.3km/h | WSW | 4.7km/h | 47.4W/m² | 49W/m² |
| 30.08.2026 08:25 | 18.8°C | 18.8°C | 18.7°C | 81.0% | 1015.3hPa | 0.0mm | 2.1km/h | W | 3.2km/h | 50.0W/m² | 51W/m² |
| 30.08.2026 08:30 | 18.9°C | 19.0°C | 18.8°C | 80.0% | 1015.3hPa | 0.0mm | 1.4km/h | W | 3.2km/h | 151.5W/m² | 253W/m² |
| 30.08.2026 08:35 | 19.2°C | 19.3°C | 19.1°C | 80.0% | 1015.3hPa | 0.0mm | 1.4km/h | W | 3.2km/h | 261.0W/m² | 267W/m² |
| 30.08.2026 08:40 | 19.4°C | 19.6°C | 19.3°C | 79.5% | 1015.3hPa | 0.0mm | 1.4km/h | W | 3.2km/h | 276.2W/m² | 283W/m² |
| 30.08.2026 08:45 | 19.7°C | 19.8°C | 19.6°C | 78.0% | 1015.2hPa | 0.0mm | 1.4km/h | W | 4.7km/h | 291.5W/m² | 297W/m² |
| 30.08.2026 08:50 | 20.0°C | 20.2°C | 19.8°C | 77.2% | 1015.3hPa | 0.0mm | 1.4km/h | W | 3.2km/h | 306.5W/m² | 313W/m² |
| 30.08.2026 08:55 | 20.4°C | 20.5°C | 20.2°C | 75.7% | 1015.3hPa | 0.0mm | 0.7km/h | SW | 3.2km/h | 321.5W/m² | 327W/m² |
| 30.08.2026 09:00 | 20.7°C | 20.8°C | 20.5°C | 75.0% | 1015.3hPa | 0.0mm | 0.5km/h | WNW | 1.4km/h | 334.2W/m² | 339W/m² |
| 30.08.2026 09:05 | 21.0°C | 21.2°C | 20.8°C | 73.4% | 1015.2hPa | 0.0mm | 0.0km/h | W | 3.2km/h | 347.8W/m² | 353W/m² |
| 30.08.2026 09:10 | 21.3°C | 21.4°C | 21.2°C | 71.8% | 1015.2hPa | 0.0mm | 0.0km/h | W | 3.2km/h | 362.2W/m² | 367W/m² |
| 30.08.2026 09:15 | 21.6°C | 21.7°C | 21.4°C | 71.6% | 1015.2hPa | 0.0mm | 0.7km/h | NNE | 3.2km/h | 375.5W/m² | 381W/m² |
| 30.08.2026 09:20 | 21.9°C | 22.1°C | 21.8°C | 70.2% | 1015.1hPa | 0.0mm | 1.4km/h | NE | 4.7km/h | 389.2W/m² | 396W/m² |
| 30.08.2026 09:25 | 22.2°C | 22.4°C | 22.0°C | 69.7% | 1015.2hPa | 0.0mm | 0.8km/h | NE | 3.2km/h | 404.3W/m² | 411W/m² |
| 30.08.2026 09:30 | 22.6°C | 22.8°C | 22.4°C | 67.8% | 1015.2hPa | 0.0mm | 0.9km/h | E | 3.2km/h | 418.8W/m² | 425W/m² |
| 30.08.2026 09:35 | 22.9°C | 23.0°C | 22.8°C | 66.2% | 1015.2hPa | 0.0mm | 1.4km/h | E | 3.2km/h | 428.8W/m² | 432W/m² |
| 30.08.2026 09:40 | 22.9°C | 23.0°C | 22.8°C | 65.8% | 1015.2hPa | 0.0mm | 1.4km/h | SE | 4.7km/h | 440.8W/m² | 446W/m² |
| 30.08.2026 09:45 | 22.7°C | 22.8°C | 22.6°C | 66.5% | 1015.2hPa | 0.0mm | 1.4km/h | SSE | 3.2km/h | 456.0W/m² | 461W/m² |
| 30.08.2026 09:50 | 22.8°C | 23.0°C | 22.7°C | 66.0% | 1015.2hPa | 0.0mm | 1.4km/h | ESE | 4.7km/h | 466.3W/m² | 471W/m² |
| 30.08.2026 09:55 | 22.9°C | 23.0°C | 22.8°C | 65.1% | 1015.2hPa | 0.0mm | 1.4km/h | SE | 4.7km/h | 476.7W/m² | 480W/m² |
| 30.08.2026 10:00 | 23.1°C | 23.3°C | 22.9°C | 65.3% | 1015.2hPa | 0.0mm | 1.4km/h | ESE | 4.7km/h | 487.5W/m² | 494W/m² |
| 30.08.2026 10:05 | 23.2°C | 23.3°C | 23.2°C | 65.0% | 1015.2hPa | 0.0mm | 1.4km/h | ESE | 4.7km/h | 500.0W/m² | 504W/m² |
| 30.08.2026 10:10 | 23.4°C | 23.5°C | 23.2°C | 65.7% | 1015.2hPa | 0.0mm | 1.4km/h | ESE | 4.7km/h | 510.4W/m² | 515W/m² |
| 30.08.2026 10:15 | 23.7°C | 23.8°C | 23.4°C | 64.7% | 1015.2hPa | 0.0mm | 1.4km/h | NNE | 3.2km/h | 522.7W/m² | 529W/m² |
| 30.08.2026 10:20 | 23.8°C | 23.9°C | 23.8°C | 63.5% | 1015.2hPa | 0.0mm | 1.4km/h | SE | 3.2km/h | 533.8W/m² | 540W/m² |
| 30.08.2026 10:25 | 24.1°C | 24.4°C | 23.8°C | 63.2% | 1015.2hPa | 0.0mm | 1.4km/h | NNE | 4.7km/h | 547.5W/m² | 552W/m² |
| 30.08.2026 10:30 | 24.5°C | 24.8°C | 24.3°C | 62.1% | 1015.2hPa | 0.0mm | 1.4km/h | ESE | 6.5km/h | 557.8W/m² | 563W/m² |
| 30.08.2026 10:35 | 24.5°C | 24.7°C | 24.4°C | 61.2% | 1015.2hPa | 0.0mm | 1.4km/h | ESE | 4.7km/h | 570.2W/m² | 573W/m² |
| 30.08.2026 10:40 | 24.7°C | 24.8°C | 24.6°C | 61.7% | 1015.1hPa | 0.0mm | 1.4km/h | SSE | 4.7km/h | 578.7W/m² | 584W/m² |
| 30.08.2026 10:45 | 24.8°C | 24.9°C | 24.7°C | 61.8% | 1015.2hPa | 0.0mm | 1.4km/h | ESE | 4.7km/h | 586.8W/m² | 589W/m² |
| 30.08.2026 10:50 | 25.1°C | 25.4°C | 24.8°C | 60.6% | 1015.1hPa | 0.0mm | 1.4km/h | S | 4.7km/h | 593.7W/m² | 596W/m² |
| 30.08.2026 10:55 | 25.4°C | 25.7°C | 25.2°C | 60.6% | 1015.1hPa | 0.0mm | 1.4km/h | SW | 4.7km/h | 602.0W/m² | 606W/m² |
| 30.08.2026 11:00 | 25.6°C | 25.8°C | 25.5°C | 58.9% | 1015.1hPa | 0.0mm | 1.4km/h | E | 4.7km/h | 608.3W/m² | 615W/m² |
| 30.08.2026 11:05 | 25.6°C | 25.7°C | 25.4°C | 58.3% | 1015.0hPa | 0.0mm | 1.4km/h | SE | 7.9km/h | 620.2W/m² | 624W/m² |
| 30.08.2026 11:10 | 25.4°C | 25.4°C | 25.3°C | 58.1% | 1014.9hPa | 0.0mm | 2.8km/h | S | 4.7km/h | 629.2W/m² | 635W/m² |
| 30.08.2026 11:15 | 25.8°C | 26.0°C | 25.5°C | 57.3% | 1014.8hPa | 0.0mm | 1.4km/h | SE | 6.5km/h | 639.2W/m² | 643W/m² |
| 30.08.2026 11:20 | 26.1°C | 26.2°C | 25.9°C | 55.3% | 1014.8hPa | 0.0mm | 1.4km/h | SE | 4.7km/h | 648.4W/m² | 650W/m² |
| 30.08.2026 11:25 | 26.1°C | 26.3°C | 25.9°C | 54.1% | 1014.7hPa | 0.0mm | 1.4km/h | SSE | 4.7km/h | 655.8W/m² | 661W/m² |
| 30.08.2026 11:30 | 26.3°C | 26.6°C | 25.9°C | 56.3% | 1014.7hPa | 0.0mm | 1.4km/h | S | 4.7km/h | 664.8W/m² | 666W/m² |
| 30.08.2026 11:35 | 26.8°C | 26.9°C | 26.6°C | 54.2% | 1014.6hPa | 0.0mm | 1.4km/h | SSE | 4.7km/h | 672.8W/m² | 677W/m² |
| 30.08.2026 11:40 | 26.8°C | 26.9°C | 26.7°C | 53.6% | 1014.7hPa | 0.0mm | 1.4km/h | NNE | 6.5km/h | 678.0W/m² | 682W/m² |
| 30.08.2026 11:45 | 27.2°C | 27.3°C | 26.9°C | 54.1% | 1014.6hPa | 0.0mm | 1.4km/h | ENE | 6.5km/h | 680.6W/m² | 684W/m² |
| 30.08.2026 11:50 | 27.2°C | 27.3°C | 27.1°C | 53.7% | 1014.5hPa | 0.0mm | 1.4km/h | NNE | 6.5km/h | 686.7W/m² | 691W/m² |
| 30.08.2026 11:55 | 27.3°C | 27.5°C | 27.1°C | 55.0% | 1014.5hPa | 0.0mm | 1.4km/h | NNE | 6.5km/h | 696.3W/m² | 701W/m² |
| 30.08.2026 12:00 | 27.5°C | 27.6°C | 27.3°C | 53.7% | 1014.4hPa | 0.0mm | 3.0km/h | NNE | 7.9km/h | 702.2W/m² | 705W/m² |
| 30.08.2026 12:05 | 27.2°C | 27.3°C | 27.2°C | 53.5% | 1014.3hPa | 0.0mm | 3.2km/h | NE | 7.9km/h | 709.5W/m² | 712W/m² |
| 30.08.2026 12:10 | 27.6°C | 27.8°C | 27.3°C | 54.2% | 1014.2hPa | 0.0mm | 3.2km/h | E | 3.2km/h | 719.8W/m² | 726W/m² |
| 30.08.2026 12:15 | 28.0°C | 28.1°C | 27.8°C | 53.4% | 1014.1hPa | 0.0mm | 1.7km/h | NE | 7.9km/h | 721.0W/m² | 733W/m² |
| 30.08.2026 12:20 | 27.9°C | 28.1°C | 27.6°C | 53.5% | 1014.1hPa | 0.0mm | 1.6km/h | NNE | 7.9km/h | 730.8W/m² | 733W/m² |
| 30.08.2026 12:25 | 27.5°C | 27.8°C | 27.4°C | 52.8% | 1014.1hPa | 0.0mm | 2.7km/h | E | 6.5km/h | 729.2W/m² | 733W/m² |
| 30.08.2026 12:30 | 28.1°C | 28.3°C | 27.9°C | 53.3% | 1013.9hPa | 0.0mm | 1.4km/h | ESE | 4.7km/h | 729.3W/m² | 731W/m² |
| 30.08.2026 12:35 | 28.7°C | 28.9°C | 28.4°C | 51.3% | 1013.7hPa | 0.0mm | 1.4km/h | NE | 6.5km/h | 729.5W/m² | 731W/m² |
| 30.08.2026 12:40 | 28.8°C | 28.9°C | 28.6°C | 48.5% | 1013.6hPa | 0.0mm | 1.4km/h | NNE | 7.9km/h | 733.7W/m² | 735W/m² |
| 30.08.2026 12:45 | 28.6°C | 28.8°C | 28.3°C | 49.9% | 1013.6hPa | 0.0mm | 1.4km/h | SSE | 7.9km/h | 733.7W/m² | 740W/m² |
| 30.08.2026 12:50 | 28.7°C | 28.8°C | 28.6°C | 49.9% | 1013.6hPa | 0.0mm | 1.8km/h | ESE | 6.5km/h | 740.2W/m² | 744W/m² |
| 30.08.2026 12:55 | 28.9°C | 29.2°C | 28.8°C | 50.2% | 1013.6hPa | 0.0mm | 2.6km/h | NE | 6.5km/h | 751.2W/m² | 766W/m² |
| 30.08.2026 13:00 | 29.0°C | 29.3°C | 28.7°C | 48.8% | 1013.6hPa | 0.0mm | 1.6km/h | N | 4.7km/h | 697.7W/m² | 766W/m² |
| 30.08.2026 13:05 | 28.6°C | 28.9°C | 28.5°C | 49.7% | 1013.5hPa | 0.0mm | 2.1km/h | N | 7.9km/h | 696.2W/m² | 779W/m² |
| 30.08.2026 13:10 | 29.2°C | 29.3°C | 29.0°C | 50.0% | 1013.3hPa | 0.0mm | 3.0km/h | ESE | 9.7km/h | 670.2W/m² | 777W/m² |
| 30.08.2026 13:15 | 29.1°C | 29.2°C | 29.1°C | 50.6% | 1013.2hPa | 0.0mm | 3.2km/h | ESE | 3.2km/h | 743.3W/m² | 765W/m² |
| 30.08.2026 13:20 | 29.5°C | 29.7°C | 29.1°C | 49.8% | 1013.3hPa | 0.0mm | 1.7km/h | N | 4.7km/h | 758.0W/m² | 775W/m² |
| 30.08.2026 13:25 | 29.2°C | 29.6°C | 28.9°C | 48.2% | 1013.3hPa | 0.0mm | 1.4km/h | NNE | 6.5km/h | 155.6W/m² | 165W/m² |
| 30.08.2026 13:30 | 28.9°C | 29.0°C | 28.8°C | 48.2% | 1013.2hPa | 0.0mm | 3.0km/h | ENE | 3.2km/h | 468.5W/m² | 772W/m² |
| 30.08.2026 13:35 | 29.3°C | 29.7°C | 28.9°C | 44.5% | 1013.1hPa | 0.0mm | 1.7km/h | NE | 6.5km/h | 784.5W/m² | 791W/m² |
| 30.08.2026 13:40 | 29.5°C | 29.7°C | 29.4°C | 43.5% | 1013.1hPa | 0.0mm | 1.4km/h | NNE | 4.7km/h | 784.0W/m² | 784W/m² |
| 30.08.2026 13:45 | 29.6°C | 29.8°C | 29.5°C | 44.9% | 1013.2hPa | 0.0mm | 1.4km/h | SSE | 6.5km/h | 497.5W/m² | 784W/m² |
| 30.08.2026 13:50 | 29.7°C | 29.8°C | 29.6°C | 43.3% | 1013.2hPa | 0.0mm | 1.4km/h | NNW | 4.7km/h | 354.0W/m² | 522W/m² |
| 30.08.2026 13:55 | 29.5°C | 29.8°C | 29.2°C | 44.8% | 1013.1hPa | 0.0mm | 1.9km/h | S | 7.9km/h | 368.5W/m² | 468W/m² |
| 30.08.2026 14:00 | 29.1°C | 29.2°C | 29.1°C | 45.7% | 1013.2hPa | 0.0mm | 3.2km/h | SE | 7.9km/h | 275.8W/m² | 334W/m² |
| 30.08.2026 14:05 | 28.8°C | 29.0°C | 28.6°C | 47.9% | 1013.2hPa | 0.0mm | 3.2km/h | SE | 6.5km/h | 222.8W/m² | 278W/m² |
| 30.08.2026 14:10 | 28.7°C | 28.9°C | 28.6°C | 49.3% | 1013.1hPa | 0.0mm | 3.2km/h | SSW | 7.9km/h | 455.6W/m² | 765W/m² |
| 30.08.2026 14:15 | 29.0°C | 29.2°C | 28.9°C | 48.6% | 1013.1hPa | 0.0mm | 3.2km/h | SSW | 7.9km/h | 662.8W/m² | 788W/m² |
| 30.08.2026 14:20 | 29.4°C | 29.6°C | 29.2°C | 46.6% | 1013.0hPa | 0.0mm | 3.9km/h | SSW | 7.9km/h | 726.0W/m² | 761W/m² |
| 30.08.2026 14:25 | 29.8°C | 30.1°C | 29.7°C | 46.1% | 1012.9hPa | 0.0mm | 3.4km/h | SSW | 7.9km/h | 549.8W/m² | 744W/m² |
| 30.08.2026 14:30 | 30.3°C | 30.4°C | 30.1°C | 45.1% | 1013.0hPa | 0.0mm | 3.2km/h | SSE | 6.5km/h | 713.3W/m² | 719W/m² |
| 30.08.2026 14:35 | 30.4°C | 30.6°C | 30.3°C | 44.0% | 1012.9hPa | 0.0mm | 3.2km/h | NNE | 4.7km/h | 705.7W/m² | 708W/m² |
| 30.08.2026 14:40 | 30.7°C | 30.9°C | 30.4°C | 43.2% | 1012.8hPa | 0.0mm | 1.6km/h | NNE | 6.5km/h | 706.2W/m² | 715W/m² |
| 30.08.2026 14:45 | 30.9°C | 31.1°C | 30.8°C | 43.2% | 1012.8hPa | 0.0mm | 2.3km/h | N | 4.7km/h | 688.4W/m² | 710W/m² |
| 30.08.2026 14:50 | 31.1°C | 31.3°C | 31.0°C | 42.9% | 1012.7hPa | 0.0mm | 1.6km/h | ESE | 6.5km/h | 674.7W/m² | 694W/m² |
| 30.08.2026 14:55 | 31.2°C | 31.3°C | 31.2°C | 42.1% | 1012.7hPa | 0.0mm | 1.6km/h | NNE | 6.5km/h | 687.2W/m² | 698W/m² |
| 30.08.2026 15:00 | 31.0°C | 31.2°C | 30.9°C | 41.3% | 1012.6hPa | 0.0mm | 3.2km/h | NNE | 7.9km/h | 677.7W/m² | 696W/m² |
| 30.08.2026 15:05 | 31.1°C | 31.3°C | 30.9°C | 41.9% | 1012.6hPa | 0.0mm | 3.2km/h | NNE | 9.7km/h | 690.0W/m² | 701W/m² |
| 30.08.2026 15:10 | 31.4°C | 31.6°C | 31.3°C | 40.4% | 1012.5hPa | 0.0mm | 3.2km/h | NE | 13.0km/h | 684.3W/m² | 696W/m² |
| 30.08.2026 15:15 | 31.4°C | 31.6°C | 31.3°C | 41.9% | 1012.5hPa | 0.0mm | 3.2km/h | NNE | 6.5km/h | 681.6W/m² | 701W/m² |
| 30.08.2026 15:20 | 31.6°C | 31.7°C | 31.4°C | 41.1% | 1012.4hPa | 0.0mm | 3.2km/h | NNE | 7.9km/h | 657.2W/m² | 703W/m² |
| 30.08.2026 15:25 | 31.2°C | 31.3°C | 31.2°C | 42.2% | 1012.4hPa | 0.0mm | 3.4km/h | NNE | 13.0km/h | 652.2W/m² | 663W/m² |
| 30.08.2026 15:30 | 31.2°C | 31.4°C | 31.1°C | 43.1% | 1012.3hPa | 0.0mm | 3.7km/h | N | 13.0km/h | 639.3W/m² | 642W/m² |
| 30.08.2026 15:35 | 31.2°C | 31.3°C | 31.1°C | 41.8% | 1012.3hPa | 0.0mm | 3.2km/h | NNE | 7.9km/h | 632.3W/m² | 640W/m² |
| 30.08.2026 15:40 | 31.3°C | 31.3°C | 31.2°C | 42.4% | 1012.3hPa | 0.0mm | 2.8km/h | NE | 7.9km/h | 610.7W/m² | 621W/m² |
| 30.08.2026 15:45 | 31.2°C | 31.3°C | 31.1°C | 43.3% | 1012.2hPa | 0.0mm | 3.2km/h | NNE | 13.0km/h | 594.3W/m² | 598W/m² |
| 30.08.2026 15:50 | 31.4°C | 31.6°C | 31.3°C | 43.7% | 1012.2hPa | 0.0mm | 3.2km/h | NNE | 11.2km/h | 581.6W/m² | 585W/m² |
| 30.08.2026 15:55 | 31.4°C | 31.4°C | 31.3°C | 43.0% | 1012.1hPa | 0.0mm | 3.2km/h | E | 9.7km/h | 571.0W/m² | 573W/m² |
| 30.08.2026 16:00 | 31.6°C | 31.6°C | 31.5°C | 43.1% | 1012.0hPa | 0.0mm | 3.2km/h | NNE | 7.9km/h | 563.2W/m² | 568W/m² |
| 30.08.2026 16:05 | 31.4°C | 31.6°C | 31.2°C | 43.1% | 1011.9hPa | 0.0mm | 3.9km/h | NE | 16.2km/h | 555.7W/m² | 557W/m² |
| 30.08.2026 16:10 | 31.3°C | 31.4°C | 31.3°C | 44.0% | 1011.9hPa | 0.0mm | 4.7km/h | N | 13.0km/h | 556.7W/m² | 559W/m² |
| 30.08.2026 16:15 | 31.1°C | 31.3°C | 30.8°C | 43.7% | 1011.9hPa | 0.0mm | 4.7km/h | NNE | 13.0km/h | 264.7W/m² | 555W/m² |
| 30.08.2026 16:20 | 30.5°C | 30.7°C | 30.4°C | 44.2% | 1011.8hPa | 0.0mm | 4.8km/h | N | 14.4km/h | 414.8W/m² | 557W/m² |
| 30.08.2026 16:25 | 30.5°C | 30.5°C | 30.4°C | 44.5% | 1011.8hPa | 0.0mm | 4.9km/h | NNE | 9.7km/h | 392.2W/m² | 557W/m² |
| 30.08.2026 16:30 | 30.5°C | 30.7°C | 30.4°C | 45.5% | 1011.8hPa | 0.0mm | 6.2km/h | NNE | 17.6km/h | 552.3W/m² | 557W/m² |
| 30.08.2026 16:35 | 30.8°C | 31.1°C | 30.6°C | 44.9% | 1011.8hPa | 0.0mm | 6.5km/h | NNE | 16.2km/h | 519.2W/m² | 533W/m² |
| 30.08.2026 16:40 | 31.0°C | 31.2°C | 30.7°C | 44.2% | 1011.8hPa | 0.0mm | 6.5km/h | N | 17.6km/h | 495.0W/m² | 501W/m² |
| 30.08.2026 16:45 | 30.8°C | 30.8°C | 30.7°C | 44.4% | 1011.8hPa | 0.0mm | 6.6km/h | NNE | 17.6km/h | 481.7W/m² | 487W/m² |
| 30.08.2026 16:50 | 30.8°C | 30.9°C | 30.8°C | 44.0% | 1011.8hPa | 0.0mm | 7.3km/h | NNE | 14.4km/h | 461.8W/m² | 469W/m² |
| 30.08.2026 16:55 | 30.7°C | 30.9°C | 30.6°C | 43.9% | 1011.8hPa | 0.0mm | 6.5km/h | NNE | 19.4km/h | 441.0W/m² | 450W/m² |
| 30.08.2026 17:00 | 30.7°C | 30.8°C | 30.6°C | 44.8% | 1011.8hPa | 0.0mm | 6.5km/h | NE | 17.6km/h | 431.2W/m² | 434W/m² |
| 30.08.2026 17:05 | 30.8°C | 30.9°C | 30.7°C | 45.0% | 1011.8hPa | 0.0mm | 5.6km/h | NNE | 16.2km/h | 418.5W/m² | 424W/m² |
| 30.08.2026 17:10 | 30.8°C | 30.8°C | 30.7°C | 44.9% | 1011.8hPa | 0.0mm | 5.0km/h | NNE | 14.4km/h | 404.7W/m² | 411W/m² |
| 30.08.2026 17:15 | 30.7°C | 30.8°C | 30.6°C | 45.6% | 1011.8hPa | 0.0mm | 4.7km/h | N | 14.4km/h | 375.7W/m² | 385W/m² |
| 30.08.2026 17:20 | 30.8°C | 30.8°C | 30.7°C | 45.2% | 1011.9hPa | 0.0mm | 4.7km/h | NE | 14.4km/h | 353.3W/m² | 362W/m² |
| 30.08.2026 17:25 | 30.5°C | 30.7°C | 30.3°C | 45.4% | 1011.8hPa | 0.0mm | 3.4km/h | NNE | 7.9km/h | 303.3W/m² | 336W/m² |
| 30.08.2026 17:30 | 30.4°C | 30.4°C | 30.3°C | 46.2% | 1011.8hPa | 0.0mm | 3.2km/h | N | 6.5km/h | 298.2W/m² | 306W/m² |
| 30.08.2026 17:35 | 30.4°C | 30.5°C | 30.4°C | 45.8% | 1011.8hPa | 0.0mm | 3.2km/h | NNE | 6.5km/h | 306.4W/m² | 313W/m² |
| 30.08.2026 17:40 | 30.3°C | 30.4°C | 30.2°C | 45.8% | 1011.8hPa | 0.0mm | 3.2km/h | N | 14.4km/h | 216.3W/m² | 297W/m² |
| 30.08.2026 17:45 | 30.3°C | 30.3°C | 30.2°C | 46.1% | 1011.9hPa | 0.0mm | 3.2km/h | N | 16.2km/h | 272.8W/m² | 285W/m² |
| 30.08.2026 17:50 | 30.1°C | 30.2°C | 30.1°C | 46.3% | 1011.8hPa | 0.0mm | 3.2km/h | NNE | 9.7km/h | 205.5W/m² | 272W/m² |
| 30.08.2026 17:55 | 30.1°C | 30.1°C | 30.1°C | 46.2% | 1011.8hPa | 0.0mm | 3.2km/h | NNE | 7.9km/h | 235.2W/m² | 260W/m² |
| 30.08.2026 18:00 | 30.1°C | 30.1°C | 30.1°C | 46.8% | 1011.8hPa | 0.0mm | 3.2km/h | NNE | 6.5km/h | 245.0W/m² | 248W/m² |
| 30.08.2026 18:05 | 30.2°C | 30.2°C | 30.1°C | 46.1% | 1011.8hPa | 0.0mm | 3.2km/h | NNE | 14.4km/h | 231.5W/m² | 239W/m² |
| 30.08.2026 18:10 | 30.1°C | 30.2°C | 30.0°C | 46.0% | 1011.8hPa | 0.0mm | 4.2km/h | N | 13.0km/h | 208.0W/m² | 216W/m² |
| 30.08.2026 18:15 | 29.9°C | 30.0°C | 29.8°C | 46.5% | 1011.9hPa | 0.0mm | 4.7km/h | N | 11.2km/h | 167.5W/m² | 193W/m² |
| 30.08.2026 18:20 | 29.7°C | 29.8°C | 29.7°C | 46.7% | 1011.9hPa | 0.0mm | 4.7km/h | NNE | 7.9km/h | 171.5W/m² | 178W/m² |
| 30.08.2026 18:25 | 29.7°C | 29.7°C | 29.7°C | 48.2% | 1011.9hPa | 0.0mm | 3.4km/h | N | 6.5km/h | 168.8W/m² | 174W/m² |
| 30.08.2026 18:30 | 29.7°C | 29.7°C | 29.7°C | 48.2% | 1011.9hPa | 0.0mm | 2.5km/h | NNE | 6.5km/h | 101.7W/m² | 141W/m² |
| 30.08.2026 18:35 | 29.6°C | 29.7°C | 29.6°C | 47.9% | 1011.9hPa | 0.0mm | 3.2km/h | NNE | 7.9km/h | 123.8W/m² | 135W/m² |
| 30.08.2026 18:40 | 29.6°C | 29.6°C | 29.5°C | 48.6% | 1011.9hPa | 0.0mm | 3.2km/h | NE | 4.7km/h | 120.2W/m² | 127W/m² |
| 30.08.2026 18:45 | 29.4°C | 29.5°C | 29.4°C | 49.0% | 1011.9hPa | 0.0mm | 2.4km/h | NNE | 4.7km/h | 102.6W/m² | 111W/m² |
| 30.08.2026 18:50 | 29.3°C | 29.4°C | 29.2°C | 49.0% | 1011.9hPa | 0.0mm | 1.9km/h | NE | 6.5km/h | 82.3W/m² | 90W/m² |
| 30.08.2026 18:55 | 29.2°C | 29.3°C | 29.1°C | 49.4% | 1011.8hPa | 0.0mm | 1.6km/h | NNE | 6.5km/h | 66.8W/m² | 74W/m² |
| 30.08.2026 19:00 | 28.9°C | 29.1°C | 28.7°C | 50.0% | 1011.8hPa | 0.0mm | 2.2km/h | NNE | 7.9km/h | 43.0W/m² | 53W/m² |
| 30.08.2026 19:05 | 28.5°C | 28.7°C | 28.3°C | 50.8% | 1011.9hPa | 0.0mm | 3.2km/h | N | 6.5km/h | 29.3W/m² | 30W/m² |
| 30.08.2026 19:10 | 28.1°C | 28.3°C | 28.0°C | 51.2% | 1011.8hPa | 0.0mm | 3.2km/h | NNE | 9.7km/h | 26.2W/m² | 28W/m² |
| 30.08.2026 19:15 | 27.8°C | 27.9°C | 27.7°C | 52.0% | 1011.9hPa | 0.0mm | 3.2km/h | NNE | 6.5km/h | 24.0W/m² | 25W/m² |
| 30.08.2026 19:20 | 27.6°C | 27.8°C | 27.5°C | 52.8% | 1012.0hPa | 0.0mm | 3.1km/h | NNE | 4.7km/h | 20.3W/m² | 21W/m² |
| 30.08.2026 19:25 | 27.4°C | 27.5°C | 27.3°C | 53.9% | 1012.0hPa | 0.0mm | 1.4km/h | NE | 4.7km/h | 18.3W/m² | 19W/m² |
| 30.08.2026 19:30 | 27.2°C | 27.3°C | 27.1°C | 55.4% | 1012.1hPa | 0.0mm | 0.5km/h | ESE | 3.2km/h | 15.7W/m² | 18W/m² |
| 30.08.2026 19:35 | 26.8°C | 27.0°C | 26.7°C | 56.2% | 1012.1hPa | 0.0mm | 1.4km/h | SE | 3.2km/h | 12.7W/m² | 14W/m² |
| 30.08.2026 19:40 | 26.5°C | 26.7°C | 26.3°C | 57.0% | 1012.1hPa | 0.0mm | 1.4km/h | SSE | 4.7km/h | 10.3W/m² | 11W/m² |
| 30.08.2026 19:45 | 26.3°C | 26.4°C | 26.2°C | 57.0% | 1012.1hPa | 0.0mm | 1.4km/h | S | 4.7km/h | 7.3W/m² | 9W/m² |
| 30.08.2026 19:50 | 26.1°C | 26.2°C | 25.9°C | 57.6% | 1012.2hPa | 0.0mm | 1.4km/h | S | 4.7km/h | 4.0W/m² | 5W/m² |
| 30.08.2026 19:55 | 25.8°C | 25.9°C | 25.7°C | 58.6% | 1012.3hPa | 0.0mm | 1.4km/h | SSW | 3.2km/h | 0.0W/m² | 0W/m² |
| 30.08.2026 20:00 | 25.5°C | 25.7°C | 25.3°C | 59.2% | 1012.3hPa | 0.0mm | 1.4km/h | S | 6.5km/h | 0.0W/m² | 0W/m² |
| 30.08.2026 20:05 | 25.0°C | 25.3°C | 24.8°C | 60.3% | 1012.5hPa | 0.0mm | 2.3km/h | S | 6.5km/h | 0.0W/m² | 0W/m² |
| 30.08.2026 20:10 | 24.7°C | 24.8°C | 24.7°C | 60.8% | 1012.6hPa | 0.0mm | 3.2km/h | S | 6.5km/h | 0.0W/m² | 0W/m² |
| 30.08.2026 20:15 | 24.6°C | 24.7°C | 24.6°C | 61.0% | 1012.7hPa | 0.0mm | 3.1km/h | SE | 3.2km/h | 0.0W/m² | 0W/m² |
| 30.08.2026 20:20 | 24.5°C | 24.6°C | 24.4°C | 61.0% | 1012.8hPa | 0.0mm | 1.4km/h | S | 9.7km/h | 0.0W/m² | 0W/m² |
| 30.08.2026 20:25 | 24.4°C | 24.4°C | 24.3°C | 60.7% | 1012.8hPa | 0.0mm | 3.7km/h | SSW | 13.0km/h | 0.0W/m² | 0W/m² |
| 30.08.2026 20:30 | 24.6°C | 24.7°C | 24.4°C | 59.6% | 1013.0hPa | 0.0mm | 6.3km/h | SSW | 13.0km/h | 0.0W/m² | 0W/m² |
| 30.08.2026 20:35 | 24.7°C | 24.7°C | 24.6°C | 59.7% | 1013.1hPa | 0.0mm | 6.0km/h | SSW | 6.5km/h | 0.0W/m² | 0W/m² |
| 30.08.2026 20:40 | 24.5°C | 24.6°C | 24.4°C | 60.0% | 1013.2hPa | 0.0mm | 4.7km/h | SSW | 9.7km/h | 0.0W/m² | 0W/m² |
| 30.08.2026 20:45 | 24.3°C | 24.4°C | 24.2°C | 61.0% | 1013.2hPa | 0.0mm | 4.7km/h | SSW | 9.7km/h | 0.0W/m² | 0W/m² |
| 30.08.2026 20:50 | 24.2°C | 24.2°C | 24.1°C | 61.0% | 1013.3hPa | 0.0mm | 4.7km/h | SSW | 7.9km/h | 0.0W/m² | 0W/m² |
| 30.08.2026 20:55 | 24.1°C | 24.1°C | 24.1°C | 61.0% | 1013.5hPa | 0.0mm | 4.7km/h | SSW | 9.7km/h | 0.0W/m² | 0W/m² |
| 30.08.2026 21:00 | 24.0°C | 24.1°C | 24.0°C | 61.6% | 1013.5hPa | 0.0mm | 4.7km/h | S | 7.9km/h | 0.0W/m² | 0W/m² |
| 30.08.2026 21:05 | 23.9°C | 24.0°C | 23.8°C | 62.0% | 1013.6hPa | 0.0mm | 3.7km/h | S | 7.9km/h | 0.0W/m² | 0W/m² |
| 30.08.2026 21:10 | 23.6°C | 23.8°C | 23.5°C | 62.1% | 1013.6hPa | 0.0mm | 3.2km/h | S | 7.9km/h | 0.0W/m² | 0W/m² |
| 30.08.2026 21:15 | 23.4°C | 23.5°C | 23.3°C | 63.0% | 1013.6hPa | 0.0mm | 4.2km/h | SSW | 9.7km/h | 0.0W/m² | 0W/m² |
| 30.08.2026 21:20 | 23.3°C | 23.4°C | 23.2°C | 63.0% | 1013.7hPa | 0.0mm | 5.9km/h | S | 11.2km/h | 0.0W/m² | 0W/m² |
| 30.08.2026 21:25 | 23.2°C | 23.2°C | 23.2°C | 63.0% | 1013.7hPa | 0.0mm | 6.4km/h | S | 9.7km/h | 0.0W/m² | 0W/m² |
| 30.08.2026 21:30 | 23.1°C | 23.2°C | 23.1°C | 63.4% | 1013.6hPa | 0.0mm | 4.7km/h | SSE | 9.7km/h | 0.0W/m² | 0W/m² |
| 30.08.2026 21:35 | 23.0°C | 23.1°C | 22.9°C | 63.9% | 1013.7hPa | 0.0mm | 4.7km/h | SSW | 9.7km/h | 0.0W/m² | 0W/m² |
| 30.08.2026 21:40 | 22.8°C | 22.9°C | 22.8°C | 64.1% | 1013.7hPa | 0.0mm | 4.7km/h | SSW | 9.7km/h | 0.0W/m² | 0W/m² |
| 30.08.2026 21:45 | 22.8°C | 22.8°C | 22.8°C | 64.8% | 1013.6hPa | 0.0mm | 4.7km/h | SSW | 11.2km/h | 0.0W/m² | 0W/m² |
| 30.08.2026 21:50 | 22.8°C | 22.8°C | 22.8°C | 64.0% | 1013.7hPa | 0.0mm | 6.3km/h | S | 13.0km/h | 0.0W/m² | 0W/m² |
| 30.08.2026 21:55 | 22.8°C | 22.8°C | 22.8°C | 64.0% | 1013.7hPa | 0.0mm | 4.9km/h | SSE | 7.9km/h | 0.0W/m² | 0W/m² |
| 30.08.2026 22:00 | 22.7°C | 22.7°C | 22.6°C | 64.6% | 1013.7hPa | 0.0mm | 4.7km/h | SSW | 11.2km/h | 0.0W/m² | 0W/m² |
| 30.08.2026 22:05 | 22.5°C | 22.6°C | 22.5°C | 65.0% | 1013.8hPa | 0.0mm | 5.9km/h | SSW | 13.0km/h | 0.0W/m² | 0W/m² |
| 30.08.2026 22:10 | 22.4°C | 22.5°C | 22.4°C | 65.0% | 1013.8hPa | 0.0mm | 6.5km/h | SSW | 11.2km/h | 0.0W/m² | 0W/m² |
| 30.08.2026 22:15 | 22.4°C | 22.4°C | 22.3°C | 65.0% | 1013.7hPa | 0.0mm | 6.9km/h | SSW | 14.4km/h | 0.0W/m² | 0W/m² |
| 30.08.2026 22:20 | 22.3°C | 22.4°C | 22.3°C | 65.0% | 1013.8hPa | 0.0mm | 7.9km/h | SSW | 13.0km/h | 0.0W/m² | 0W/m² |
| 30.08.2026 22:25 | 22.3°C | 22.3°C | 22.2°C | 65.9% | 1013.8hPa | 0.0mm | 7.8km/h | S | 9.7km/h | 0.0W/m² | 0W/m² |
| 30.08.2026 22:30 | 22.2°C | 22.2°C | 22.1°C | 66.0% | 1013.8hPa | 0.0mm | 6.5km/h | SSW | 9.7km/h | 0.0W/m² | 0W/m² |
| 30.08.2026 22:35 | 22.2°C | 22.2°C | 22.1°C | 66.0% | 1013.9hPa | 0.0mm | 6.4km/h | S | 9.7km/h | 0.0W/m² | 0W/m² |
| 30.08.2026 22:40 | 22.0°C | 22.1°C | 21.9°C | 66.0% | 1014.0hPa | 0.0mm | 4.3km/h | S | 9.7km/h | 0.0W/m² | 0W/m² |
| 30.08.2026 22:45 | 21.9°C | 21.9°C | 21.9°C | 66.6% | 1014.1hPa | 0.0mm | 3.2km/h | S | 7.9km/h | 0.0W/m² | 0W/m² |
| 30.08.2026 22:50 | 21.8°C | 21.9°C | 21.8°C | 67.0% | 1014.1hPa | 0.0mm | 3.2km/h | S | 6.5km/h | 0.0W/m² | 0W/m² |
| 30.08.2026 22:55 | 21.7°C | 21.8°C | 21.6°C | 67.0% | 1014.1hPa | 0.0mm | 3.2km/h | S | 7.9km/h | 0.0W/m² | 0W/m² |
| 30.08.2026 23:00 | 21.6°C | 21.7°C | 21.6°C | 67.3% | 1014.1hPa | 0.0mm | 3.2km/h | S | 9.7km/h | 0.0W/m² | 0W/m² |
| 30.08.2026 23:05 | 21.6°C | 21.6°C | 21.5°C | 67.0% | 1014.2hPa | 0.0mm | 4.2km/h | SSW | 14.4km/h | 0.0W/m² | 0W/m² |
| 30.08.2026 23:10 | 21.6°C | 21.7°C | 21.6°C | 67.0% | 1014.2hPa | 0.0mm | 4.7km/h | S | 11.2km/h | 0.0W/m² | 0W/m² |
| 30.08.2026 23:15 | 21.6°C | 21.6°C | 21.6°C | 67.0% | 1014.3hPa | 0.0mm | 4.7km/h | SSW | 11.2km/h | 0.0W/m² | 0W/m² |
| 30.08.2026 23:20 | 21.5°C | 21.6°C | 21.4°C | 67.0% | 1014.4hPa | 0.0mm | 4.7km/h | SSE | 7.9km/h | 0.0W/m² | 0W/m² |
| 30.08.2026 23:25 | 21.4°C | 21.4°C | 21.3°C | 67.5% | 1014.4hPa | 0.0mm | 3.7km/h | S | 6.5km/h | 0.0W/m² | 0W/m² |
| 30.08.2026 23:30 | 21.3°C | 21.3°C | 21.3°C | 68.0% | 1014.4hPa | 0.0mm | 3.2km/h | SSW | 7.9km/h | 0.0W/m² | 0W/m² |
| 30.08.2026 23:35 | 21.3°C | 21.3°C | 21.3°C | 68.0% | 1014.4hPa | 0.0mm | 3.2km/h | S | 9.7km/h | 0.0W/m² | 0W/m² |
| 30.08.2026 23:40 | 21.2°C | 21.3°C | 21.2°C | 68.0% | 1014.5hPa | 0.0mm | 3.2km/h | S | 9.7km/h | 0.0W/m² | 0W/m² |
| 30.08.2026 23:45 | 21.2°C | 21.2°C | 21.2°C | 68.0% | 1014.5hPa | 0.0mm | 4.5km/h | S | 11.2km/h | 0.0W/m² | 0W/m² |
| 30.08.2026 23:50 | 21.3°C | 21.3°C | 21.2°C | 68.0% | 1014.5hPa | 0.0mm | 4.7km/h | SSW | 7.9km/h | 0.0W/m² | 0W/m² |
| 30.08.2026 23:55 | 21.2°C | 21.3°C | 21.2°C | 68.0% | 1014.5hPa | 0.0mm | 4.3km/h | S | 7.9km/h | 0.0W/m² | 0W/m² |
| 31.08.2026 00:00 | 21.1°C | 21.2°C | 21.1°C | 68.3% | 1014.5hPa | 0.0mm | 3.2km/h | SSW | 7.9km/h | 0.0W/m² | 0W/m² |
| 31.08.2026 00:05 | 21.0°C | 21.1°C | 20.9°C | 69.0% | 1014.5hPa | 0.0mm | 3.2km/h | SSW | 9.7km/h | 0.0W/m² | 0W/m² |
| 31.08.2026 00:10 | 20.9°C | 20.9°C | 20.8°C | 69.0% | 1014.5hPa | 0.0mm | 4.0km/h | SSW | 11.2km/h | 0.0W/m² | 0W/m² |
| 31.08.2026 00:15 | 20.8°C | 20.9°C | 20.8°C | 69.0% | 1014.5hPa | 0.0mm | 4.7km/h | SSW | 7.9km/h | 0.0W/m² | 0W/m² |
| 31.08.2026 00:20 | 20.8°C | 20.8°C | 20.8°C | 69.5% | 1014.6hPa | 0.0mm | 4.7km/h | SSW | 9.7km/h | 0.0W/m² | 0W/m² |
| 31.08.2026 00:25 | 20.8°C | 20.8°C | 20.8°C | 70.0% | 1014.5hPa | 0.0mm | 3.7km/h | S | 7.9km/h | 0.0W/m² | 0W/m² |
| 31.08.2026 00:30 | 20.7°C | 20.7°C | 20.7°C | 70.0% | 1014.5hPa | 0.0mm | 3.2km/h | ESE | 6.5km/h | 0.0W/m² | 0W/m² |
| 31.08.2026 00:35 | 20.6°C | 20.7°C | 20.6°C | 70.0% | 1014.5hPa | 0.0mm | 3.2km/h | S | 4.7km/h | 0.0W/m² | 0W/m² |
| 31.08.2026 00:40 | 20.6°C | 20.6°C | 20.5°C | 70.0% | 1014.5hPa | 0.0mm | 2.8km/h | S | 11.2km/h | 0.0W/m² | 0W/m² |
| 31.08.2026 00:45 | 20.6°C | 20.6°C | 20.5°C | 70.0% | 1014.5hPa | 0.0mm | 3.2km/h | ESE | 4.7km/h | 0.0W/m² | 0W/m² |
| 31.08.2026 00:50 | 20.4°C | 20.5°C | 20.3°C | 70.4% | 1014.4hPa | 0.0mm | 2.0km/h | SE | 6.5km/h | 0.0W/m² | 0W/m² |
| 31.08.2026 00:55 | 20.3°C | 20.3°C | 20.3°C | 71.0% | 1014.5hPa | 0.0mm | 1.4km/h | SSW | 6.5km/h | 0.0W/m² | 0W/m² |
| 31.08.2026 01:00 | 20.3°C | 20.3°C | 20.2°C | 71.0% | 1014.5hPa | 0.0mm | 1.4km/h | SE | 4.7km/h | 0.0W/m² | 0W/m² |
| 31.08.2026 01:05 | 20.2°C | 20.3°C | 20.2°C | 71.0% | 1014.5hPa | 0.0mm | 1.4km/h | SE | 4.7km/h | 0.0W/m² | 0W/m² |
| 31.08.2026 01:10 | 20.2°C | 20.2°C | 20.1°C | 71.0% | 1014.5hPa | 0.0mm | 1.4km/h | SSE | 3.2km/h | 0.0W/m² | 0W/m² |
| 31.08.2026 01:15 | 20.1°C | 20.1°C | 20.0°C | 71.6% | 1014.5hPa | 0.0mm | 1.4km/h | S | 6.5km/h | 0.0W/m² | 0W/m² |
| 31.08.2026 01:20 | 19.9°C | 20.0°C | 19.9°C | 72.0% | 1014.5hPa | 0.0mm | 2.0km/h | SSW | 6.5km/h | 0.0W/m² | 0W/m² |
| 31.08.2026 01:25 | 20.0°C | 20.0°C | 19.9°C | 72.0% | 1014.5hPa | 0.0mm | 3.2km/h | S | 6.5km/h | 0.0W/m² | 0W/m² |
| 31.08.2026 01:30 | 19.9°C | 20.0°C | 19.9°C | 72.0% | 1014.5hPa | 0.0mm | 2.7km/h | S | 1.4km/h | 0.0W/m² | 0W/m² |
| 31.08.2026 01:35 | 19.9°C | 19.9°C | 19.8°C | 72.0% | 1014.5hPa | 0.0mm | 1.4km/h | SSW | 9.7km/h | 0.0W/m² | 0W/m² |
| 31.08.2026 01:40 | 19.8°C | 19.8°C | 19.8°C | 72.0% | 1014.5hPa | 0.0mm | 2.6km/h | S | 6.5km/h | 0.0W/m² | 0W/m² |
| 31.08.2026 01:45 | 19.8°C | 19.8°C | 19.7°C | 72.9% | 1014.5hPa | 0.0mm | 2.7km/h | S | 3.2km/h | 0.0W/m² | 0W/m² |
| 31.08.2026 01:50 | 19.7°C | 19.7°C | 19.6°C | 73.0% | 1014.5hPa | 0.0mm | 1.4km/h | S | 3.2km/h | 0.0W/m² | 0W/m² |
| 31.08.2026 01:55 | 19.6°C | 19.7°C | 19.6°C | 73.5% | 1014.5hPa | 0.0mm | 1.4km/h | SW | 4.7km/h | 0.0W/m² | 0W/m² |
| 31.08.2026 02:00 | 19.6°C | 19.6°C | 19.5°C | 74.5% | 1014.5hPa | 0.0mm | 1.4km/h | SSE | 3.2km/h | 0.0W/m² | 0W/m² |
| 31.08.2026 02:05 | 19.5°C | 19.6°C | 19.4°C | 75.4% | 1014.5hPa | 0.0mm | 1.3km/h | S | 3.2km/h | 0.0W/m² | 0W/m² |
| 31.08.2026 02:10 | 19.4°C | 19.4°C | 19.4°C | 76.0% | 1014.5hPa | 0.0mm | 0.0km/h | S | 3.2km/h | 0.0W/m² | 0W/m² |
| 31.08.2026 02:15 | 19.3°C | 19.4°C | 19.3°C | 75.8% | 1014.5hPa | 0.0mm | 0.0km/h | S | 3.2km/h | 0.0W/m² | 0W/m² |
| 31.08.2026 02:20 | 19.3°C | 19.4°C | 19.3°C | 75.9% | 1014.5hPa | 0.0mm | 0.4km/h | SSW | 1.4km/h | 0.0W/m² | 0W/m² |
| 31.08.2026 02:25 | 19.3°C | 19.4°C | 19.3°C | 76.3% | 1014.5hPa | 0.0mm | 1.4km/h | SSW | 3.2km/h | 0.0W/m² | 0W/m² |
| 31.08.2026 02:30 | 19.2°C | 19.3°C | 19.1°C | 77.3% | 1014.5hPa | 0.0mm | 0.7km/h | SSW | 1.4km/h | 0.0W/m² | 0W/m² |
| 31.08.2026 02:35 | 19.0°C | 19.2°C | 18.9°C | 78.0% | 1014.4hPa | 0.0mm | 0.0km/h | SSW | 3.2km/h | 0.0W/m² | 0W/m² |
| 31.08.2026 02:40 | 18.8°C | 18.9°C | 18.7°C | 79.0% | 1014.3hPa | 0.0mm | 0.1km/h | SSW | 3.2km/h | 0.0W/m² | 0W/m² |
| 31.08.2026 02:45 | 18.6°C | 18.7°C | 18.6°C | 79.0% | 1014.3hPa | 0.0mm | 0.5km/h | SSW | 1.4km/h | 0.0W/m² | 0W/m² |
| 31.08.2026 02:50 | 18.5°C | 18.6°C | 18.4°C | 79.0% | 1014.3hPa | 0.0mm | 0.0km/h | SSW | 3.2km/h | 0.0W/m² | 0W/m² |
| 31.08.2026 02:55 | 18.4°C | 18.4°C | 18.4°C | 78.4% | 1014.2hPa | 0.0mm | 0.2km/h | SE | 4.7km/h | 0.0W/m² | 0W/m² |
| 31.08.2026 03:00 | 18.4°C | 18.5°C | 18.4°C | 77.4% | 1014.3hPa | 0.0mm | 1.4km/h | ESE | 4.7km/h | 0.0W/m² | 0W/m² |
| 31.08.2026 03:05 | 18.5°C | 18.6°C | 18.5°C | 77.0% | 1014.3hPa | 0.0mm | 1.4km/h | SE | 3.2km/h | 0.0W/m² | 0W/m² |
| 31.08.2026 03:10 | 18.6°C | 18.6°C | 18.6°C | 77.0% | 1014.2hPa | 0.0mm | 1.4km/h | SSE | 4.7km/h | 0.0W/m² | 0W/m² |
| 31.08.2026 03:15 | 18.6°C | 18.6°C | 18.6°C | 76.3% | 1014.2hPa | 0.0mm | 1.4km/h | ESE | 3.2km/h | 0.0W/m² | 0W/m² |
| 31.08.2026 03:20 | 18.6°C | 18.6°C | 18.6°C | 76.0% | 1014.2hPa | 0.0mm | 1.4km/h | E | 3.2km/h | 0.0W/m² | 0W/m² |
| 31.08.2026 03:25 | 18.5°C | 18.5°C | 18.4°C | 76.0% | 1014.3hPa | 0.0mm | 0.6km/h | E | 3.2km/h | 0.0W/m² | 0W/m² |
| 31.08.2026 03:30 | 18.4°C | 18.5°C | 18.4°C | 76.3% | 1014.3hPa | 0.0mm | 1.4km/h | S | 3.2km/h | 0.0W/m² | 0W/m² |
| 31.08.2026 03:35 | 18.4°C | 18.4°C | 18.3°C | 77.0% | 1014.3hPa | 0.0mm | 1.4km/h | ESE | 3.2km/h | 0.0W/m² | 0W/m² |
| 31.08.2026 03:40 | 18.3°C | 18.4°C | 18.3°C | 77.0% | 1014.2hPa | 0.0mm | 0.2km/h | SSW | 0.0km/h | 0.0W/m² | 0W/m² |
| 31.08.2026 03:45 | 18.3°C | 18.3°C | 18.3°C | 77.0% | 1014.2hPa | 0.0mm | 0.0km/h | SSW | 0.0km/h | 0.0W/m² | 0W/m² |
| 31.08.2026 03:50 | 18.2°C | 18.3°C | 18.2°C | 77.2% | 1014.2hPa | 0.0mm | 0.0km/h | SSW | 1.4km/h | 0.0W/m² | 0W/m² |
| 31.08.2026 03:55 | 18.3°C | 18.3°C | 18.2°C | 78.7% | 1014.2hPa | 0.0mm | 0.4km/h | SSW | 1.4km/h | 0.0W/m² | 0W/m² |
| 31.08.2026 04:00 | 18.1°C | 18.2°C | 18.1°C | 79.9% | 1014.2hPa | 0.0mm | 1.4km/h | WSW | 3.2km/h | 0.0W/m² | 0W/m² |
| 31.08.2026 04:05 | 17.9°C | 18.1°C | 17.8°C | 80.0% | 1014.3hPa | 0.0mm | 1.4km/h | SSW | 3.2km/h | 0.0W/m² | 0W/m² |
| 31.08.2026 04:10 | 17.8°C | 17.8°C | 17.7°C | 80.9% | 1014.3hPa | 0.0mm | 1.0km/h | SSW | 1.4km/h | 0.0W/m² | 0W/m² |
| 31.08.2026 04:15 | 17.7°C | 17.7°C | 17.7°C | 81.0% | 1014.3hPa | 0.0mm | 0.4km/h | SSW | 4.7km/h | 0.0W/m² | 0W/m² |
| 31.08.2026 04:20 | 17.7°C | 17.7°C | 17.6°C | 81.0% | 1014.3hPa | 0.0mm | 1.4km/h | SW | 3.2km/h | 0.0W/m² | 0W/m² |
| 31.08.2026 04:25 | 17.6°C | 17.7°C | 17.6°C | 81.1% | 1014.3hPa | 0.0mm | 1.4km/h | W | 1.4km/h | 0.0W/m² | 0W/m² |
| 31.08.2026 04:30 | 17.6°C | 17.6°C | 17.5°C | 82.0% | 1014.4hPa | 0.0mm | 0.0km/h | W | 1.4km/h | 0.0W/m² | 0W/m² |
| 31.08.2026 04:35 | 17.5°C | 17.6°C | 17.4°C | 82.0% | 1014.3hPa | 0.0mm | 0.0km/h | W | 1.4km/h | 0.0W/m² | 0W/m² |
| 31.08.2026 04:40 | 17.4°C | 17.5°C | 17.4°C | 82.0% | 1014.3hPa | 0.0mm | 0.4km/h | WNW | 3.2km/h | 0.0W/m² | 0W/m² |
| 31.08.2026 04:45 | 17.4°C | 17.4°C | 17.4°C | 82.7% | 1014.3hPa | 0.0mm | 1.4km/h | W | 4.7km/h | 0.0W/m² | 0W/m² |
| 31.08.2026 04:50 | 17.3°C | 17.4°C | 17.2°C | 82.9% | 1014.3hPa | 0.0mm | 2.7km/h | W | 4.7km/h | 0.0W/m² | 0W/m² |
| 31.08.2026 04:55 | 17.1°C | 17.2°C | 17.0°C | 83.0% | 1014.3hPa | 0.0mm | 2.7km/h | WSW | 4.7km/h | 0.0W/m² | 0W/m² |
| 31.08.2026 05:00 | 16.9°C | 17.0°C | 16.9°C | 83.5% | 1014.4hPa | 0.0mm | 1.4km/h | SW | 3.2km/h | 0.0W/m² | 0W/m² |
| 31.08.2026 05:05 | 16.9°C | 16.9°C | 16.8°C | 84.0% | 1014.4hPa | 0.0mm | 1.4km/h | SW | 1.4km/h | 0.0W/m² | 0W/m² |
| 31.08.2026 05:10 | 16.8°C | 16.8°C | 16.8°C | 84.0% | 1014.3hPa | 0.0mm | 0.7km/h | WSW | 1.4km/h | 0.0W/m² | 0W/m² |
| 31.08.2026 05:15 | 16.8°C | 16.9°C | 16.8°C | 84.0% | 1014.3hPa | 0.0mm | 0.1km/h | WSW | 3.2km/h | 0.0W/m² | 0W/m² |
| 31.08.2026 05:20 | 16.8°C | 16.9°C | 16.8°C | 84.0% | 1014.2hPa | 0.0mm | 1.4km/h | SSW | 3.2km/h | 0.0W/m² | 0W/m² |
| 31.08.2026 05:25 | 16.8°C | 16.8°C | 16.8°C | 84.0% | 1014.1hPa | 0.0mm | 1.4km/h | SSW | 3.2km/h | 0.0W/m² | 0W/m² |
| 31.08.2026 05:30 | 16.8°C | 16.8°C | 16.8°C | 84.0% | 1014.0hPa | 0.0mm | 0.8km/h | SSW | 1.4km/h | 0.0W/m² | 0W/m² |
| 31.08.2026 05:35 | 16.8°C | 16.8°C | 16.7°C | 84.1% | 1014.1hPa | 0.0mm | 0.0km/h | SSW | 1.4km/h | 0.0W/m² | 0W/m² |
| 31.08.2026 05:40 | 16.8°C | 16.8°C | 16.8°C | 84.0% | 1014.1hPa | 0.0mm | 0.0km/h | SSW | 0.0km/h | 0.0W/m² | 0W/m² |
| 31.08.2026 05:45 | 16.7°C | 16.8°C | 16.7°C | 83.7% | 1014.1hPa | 0.0mm | 0.0km/h | SSW | 3.2km/h | 0.0W/m² | 0W/m² |
| 31.08.2026 05:50 | 16.7°C | 16.8°C | 16.7°C | 83.0% | 1014.1hPa | 0.0mm | 0.0km/h | SSW | 0.0km/h | 0.0W/m² | 0W/m² |
| 31.08.2026 05:55 | 16.8°C | 16.8°C | 16.8°C | 83.0% | 1014.1hPa | 0.0mm | 0.0km/h | SSW | 3.2km/h | 0.0W/m² | 0W/m² |
| 31.08.2026 06:00 | 16.8°C | 16.8°C | 16.8°C | 83.7% | 1014.2hPa | 0.0mm | 0.6km/h | SSW | 1.4km/h | 0.0W/m² | 0W/m² |
| 31.08.2026 06:05 | 16.8°C | 16.8°C | 16.8°C | 84.0% | 1014.1hPa | 0.0mm | 0.4km/h | SSW | 1.4km/h | 0.0W/m² | 0W/m² |
| 31.08.2026 06:10 | 16.8°C | 16.8°C | 16.8°C | 84.0% | 1014.1hPa | 0.0mm | 0.1km/h | SSW | 6.5km/h | 0.0W/m² | 0W/m² |
| 31.08.2026 06:15 | 16.8°C | 16.8°C | 16.7°C | 84.0% | 1014.1hPa | 0.0mm | 1.4km/h | W | 4.7km/h | 0.0W/m² | 0W/m² |
| 31.08.2026 06:20 | 16.6°C | 16.7°C | 16.6°C | 84.0% | 1014.1hPa | 0.0mm | 3.0km/h | W | 4.7km/h | 0.0W/m² | 0W/m² |
| 31.08.2026 06:25 | 16.6°C | 16.6°C | 16.5°C | 84.4% | 1014.1hPa | 0.0mm | 2.0km/h | W | 3.2km/h | 0.0W/m² | 0W/m² |
| 31.08.2026 06:30 | 16.5°C | 16.6°C | 16.5°C | 85.0% | 1014.1hPa | 0.0mm | 1.4km/h | WSW | 3.2km/h | 0.0W/m² | 0W/m² |
| 31.08.2026 06:35 | 16.5°C | 16.5°C | 16.5°C | 85.0% | 1014.2hPa | 0.0mm | 1.4km/h | W | 3.2km/h | 4.0W/m² | 5W/m² |
| 31.08.2026 06:40 | 16.5°C | 16.5°C | 16.4°C | 85.0% | 1014.2hPa | 0.0mm | 1.4km/h | W | 3.2km/h | 6.3W/m² | 7W/m² |
| 31.08.2026 06:45 | 16.4°C | 16.5°C | 16.4°C | 85.0% | 1014.2hPa | 0.0mm | 1.4km/h | W | 4.7km/h | 8.7W/m² | 9W/m² |
| 31.08.2026 06:50 | 16.5°C | 16.5°C | 16.4°C | 85.0% | 1014.3hPa | 0.0mm | 1.4km/h | WSW | 3.2km/h | 10.7W/m² | 11W/m² |
| 31.08.2026 06:55 | 16.5°C | 16.5°C | 16.4°C | 85.0% | 1014.3hPa | 0.0mm | 1.4km/h | WSW | 3.2km/h | 11.8W/m² | 12W/m² |
| 31.08.2026 07:00 | 16.5°C | 16.6°C | 16.5°C | 85.0% | 1014.4hPa | 0.0mm | 1.4km/h | WSW | 4.7km/h | 14.3W/m² | 16W/m² |
| 31.08.2026 07:05 | 16.6°C | 16.6°C | 16.5°C | 85.0% | 1014.3hPa | 0.0mm | 1.4km/h | SW | 3.2km/h | 16.3W/m² | 18W/m² |
| 31.08.2026 07:10 | 16.6°C | 16.6°C | 16.6°C | 85.0% | 1014.3hPa | 0.0mm | 1.4km/h | WSW | 4.7km/h | 18.2W/m² | 19W/m² |
| 31.08.2026 07:15 | 16.7°C | 16.7°C | 16.6°C | 85.0% | 1014.4hPa | 0.0mm | 2.2km/h | W | 4.7km/h | 19.4W/m² | 21W/m² |
| 31.08.2026 07:20 | 16.8°C | 16.8°C | 16.7°C | 85.0% | 1014.4hPa | 0.0mm | 3.2km/h | W | 4.7km/h | 23.7W/m² | 25W/m² |
| 31.08.2026 07:25 | 16.9°C | 16.9°C | 16.8°C | 84.8% | 1014.5hPa | 0.0mm | 2.7km/h | WSW | 4.7km/h | 25.5W/m² | 26W/m² |
| 31.08.2026 07:30 | 17.0°C | 17.1°C | 16.9°C | 84.0% | 1014.6hPa | 0.0mm | 1.4km/h | W | 3.2km/h | 27.3W/m² | 28W/m² |
| 31.08.2026 07:35 | 17.1°C | 17.2°C | 17.1°C | 84.0% | 1014.6hPa | 0.0mm | 1.4km/h | W | 4.7km/h | 29.2W/m² | 30W/m² |
| 31.08.2026 07:40 | 17.1°C | 17.2°C | 17.1°C | 84.0% | 1014.6hPa | 0.0mm | 1.4km/h | W | 4.7km/h | 31.0W/m² | 32W/m² |
| 31.08.2026 07:45 | 17.1°C | 17.2°C | 17.1°C | 84.0% | 1014.6hPa | 0.0mm | 1.4km/h | WSW | 3.2km/h | 32.3W/m² | 33W/m² |
| 31.08.2026 07:50 | 17.2°C | 17.3°C | 17.2°C | 84.0% | 1014.6hPa | 0.0mm | 1.4km/h | WSW | 3.2km/h | 33.0W/m² | 33W/m² |
| 31.08.2026 07:55 | 17.5°C | 17.6°C | 17.3°C | 83.9% | 1014.6hPa | 0.0mm | 1.4km/h | SW | 3.2km/h | 35.0W/m² | 35W/m² |
| 31.08.2026 08:00 | 17.7°C | 17.8°C | 17.6°C | 83.4% | 1014.6hPa | 0.0mm | 1.4km/h | SSW | 3.2km/h | 36.7W/m² | 37W/m² |
| 31.08.2026 08:05 | 17.9°C | 18.0°C | 17.8°C | 82.5% | 1014.6hPa | 0.0mm | 1.4km/h | W | 3.2km/h | 37.7W/m² | 39W/m² |
| 31.08.2026 08:10 | 18.1°C | 18.2°C | 18.1°C | 82.0% | 1014.6hPa | 0.0mm | 1.4km/h | W | 3.2km/h | 39.2W/m² | 40W/m² |
| 31.08.2026 08:15 | 18.3°C | 18.4°C | 18.2°C | 81.9% | 1014.6hPa | 0.0mm | 1.4km/h | W | 3.2km/h | 40.0W/m² | 40W/m² |
| 31.08.2026 08:20 | 18.5°C | 18.6°C | 18.4°C | 81.1% | 1014.6hPa | 0.0mm | 1.4km/h | W | 4.7km/h | 41.7W/m² | 42W/m² |
| 31.08.2026 08:25 | 18.6°C | 18.7°C | 18.5°C | 81.0% | 1014.6hPa | 0.0mm | 1.4km/h | W | 4.7km/h | 43.7W/m² | 44W/m² |
| 31.08.2026 08:30 | 18.8°C | 18.8°C | 18.7°C | 80.7% | 1014.6hPa | 0.0mm | 1.4km/h | WSW | 3.2km/h | 160.8W/m² | 257W/m² |
| 31.08.2026 08:35 | 18.9°C | 19.1°C | 18.8°C | 80.0% | 1014.6hPa | 0.0mm | 1.4km/h | S | 3.2km/h | 265.5W/m² | 271W/m² |
| 31.08.2026 08:40 | 19.2°C | 19.4°C | 19.1°C | 78.7% | 1014.6hPa | 0.0mm | 1.4km/h | SSE | 3.2km/h | 280.0W/m² | 287W/m² |
| 31.08.2026 08:45 | 19.7°C | 19.9°C | 19.5°C | 76.9% | 1014.6hPa | 0.0mm | 0.2km/h | SSE | 1.4km/h | 294.5W/m² | 301W/m² |
| 31.08.2026 08:50 | 20.1°C | 20.3°C | 19.9°C | 75.4% | 1014.6hPa | 0.0mm | 0.0km/h | SSE | 3.2km/h | 308.8W/m² | 315W/m² |
| 31.08.2026 08:55 | 20.6°C | 20.9°C | 20.4°C | 74.1% | 1014.6hPa | 0.0mm | 0.0km/h | E | 3.2km/h | 322.5W/m² | 329W/m² |
| 31.08.2026 09:00 | 21.1°C | 21.3°C | 20.9°C | 73.1% | 1014.6hPa | 0.0mm | 0.0km/h | E | 3.2km/h | 334.8W/m² | 341W/m² |
| 31.08.2026 09:05 | 21.6°C | 21.8°C | 21.4°C | 71.2% | 1014.5hPa | 0.0mm | 0.0km/h | SE | 3.2km/h | 349.5W/m² | 355W/m² |
| 31.08.2026 09:10 | 22.0°C | 22.1°C | 21.8°C | 68.9% | 1014.5hPa | 0.0mm | 1.0km/h | NE | 4.7km/h | 363.5W/m² | 369W/m² |
| 31.08.2026 09:15 | 22.2°C | 22.3°C | 22.1°C | 68.0% | 1014.5hPa | 0.0mm | 1.1km/h | NE | 3.2km/h | 376.8W/m² | 381W/m² |
| 31.08.2026 09:20 | 22.4°C | 22.4°C | 22.3°C | 68.0% | 1014.5hPa | 0.0mm | 1.4km/h | ESE | 3.2km/h | 387.7W/m² | 390W/m² |